createdAt,value
2022-09-18T00:02:03.341Z,100506.50
2022-09-18T00:07:04.941Z,100505.38
2022-09-18T00:12:06.551Z,100502.59
2022-09-18T00:17:09.280Z,100496.69
2022-09-18T00:22:10.887Z,100502.53
2022-09-18T00:27:12.378Z,100509.50
2022-09-18T00:32:13.897Z,100508.00
2022-09-18T00:37:15.594Z,100498.75
2022-09-18T00:42:19.668Z,100506.56
2022-09-18T00:47:26.466Z,100512.44
2022-09-18T00:52:33.867Z,100509.91
2022-09-18T00:57:40.403Z,100515.75
2022-09-18T01:02:44.799Z,100501.63
2022-09-18T01:07:52.136Z,100501.16
2022-09-18T01:12:58.308Z,100506.28
2022-09-18T01:18:10.778Z,100507.78
2022-09-18T01:23:34.210Z,100508.41
2022-09-18T01:28:59.188Z,100511.75
2022-09-18T01:34:13.277Z,100503.28
2022-09-18T01:39:39.801Z,100501.41
2022-09-18T01:44:45.528Z,100506.03
2022-09-18T01:49:49.343Z,100514.03
2022-09-18T01:54:53.162Z,100525.16
2022-09-18T02:00:00.797Z,100513.53
2022-09-18T02:05:07.565Z,100521.13
2022-09-18T02:10:10.778Z,100515.66
2022-09-18T02:15:14.552Z,100520.09
2022-09-18T02:20:30.370Z,100511.41
2022-09-18T02:25:42.080Z,100512.25
2022-09-18T02:30:44.081Z,100506.56
2022-09-18T02:35:49.627Z,100505.53
2022-09-18T02:41:16.222Z,100511.63
2022-09-18T02:46:26.301Z,100493.34
2022-09-18T02:51:35.156Z,100490.19
2022-09-18T02:56:47.064Z,100497.56
2022-09-18T03:01:49.944Z,100496.69
2022-09-18T03:06:54.506Z,100481.50
2022-09-18T03:11:56.556Z,100482.09
2022-09-18T03:16:58.188Z,100470.31
2022-09-18T03:21:59.959Z,100477.94
2022-09-18T03:27:05.060Z,100483.00
2022-09-18T03:32:06.757Z,100485.13
2022-09-18T03:37:16.356Z,100491.44
2022-09-18T03:42:19.449Z,100498.56
2022-09-18T03:47:21.090Z,100486.16
2022-09-18T03:52:23.040Z,100497.13
2022-09-18T03:57:30.947Z,100493.34
2022-09-18T04:02:51.260Z,100506.16
2022-09-18T04:08:13.298Z,100503.66
2022-09-18T04:13:33.740Z,100500.69
2022-09-18T04:18:40.352Z,100505.13
2022-09-18T04:23:43.267Z,100498.81
2022-09-18T04:28:47.574Z,100501.31
2022-09-18T04:33:50.342Z,100502.16
2022-09-18T04:38:55.849Z,100501.31
2022-09-18T04:43:57.441Z,100510.38
2022-09-18T04:48:59.071Z,100505.13
2022-09-18T04:54:02.358Z,100498.19
2022-09-18T04:59:04.162Z,100504.50
2022-09-18T05:04:06.904Z,100509.28
2022-09-18T05:09:18.293Z,100514.56
2022-09-18T05:14:20.376Z,100503.78
2022-09-18T05:19:26.215Z,100519.97
2022-09-18T05:24:34.486Z,100518.09
2022-09-18T05:29:36.257Z,100518.53
2022-09-18T05:34:46.954Z,100508.66
2022-09-18T05:39:48.601Z,100515.16
2022-09-18T05:44:50.265Z,100509.47
2022-09-18T05:49:56.465Z,100523.09
2022-09-18T05:54:59.533Z,100530.88
2022-09-18T06:00:02.252Z,100542.78
2022-09-18T06:05:10.245Z,100553.88
2022-09-18T06:10:12.898Z,100547.66
2022-09-18T06:15:17.113Z,100554.50
2022-09-18T06:20:19.858Z,100563.44
2022-09-18T06:25:22.116Z,100573.81
2022-09-18T06:30:25.970Z,100587.22
2022-09-18T06:35:27.736Z,100587.31
2022-09-18T06:40:30.614Z,100596.91
2022-09-18T06:45:54.252Z,100593.88
2022-09-18T06:50:59.656Z,100594.78
2022-09-18T06:56:05.676Z,100590.94
2022-09-18T07:01:10.442Z,100596.16
2022-09-18T07:06:18.089Z,100600.31
2022-09-18T07:11:22.884Z,100597.25
2022-09-18T07:16:24.594Z,100616.94
2022-09-18T07:21:26.737Z,100605.66
2022-09-18T07:26:28.426Z,100605.25
2022-09-18T07:31:31.058Z,100601.88
2022-09-18T07:36:32.952Z,100607.81
2022-09-18T07:41:34.569Z,100605.41
2022-09-18T07:46:38.676Z,100605.59
2022-09-18T07:51:42.671Z,100607.03
2022-09-18T07:56:47.018Z,100610.53
2022-09-18T08:01:55.616Z,100616.88
2022-09-18T08:07:03.792Z,100633.03
2022-09-18T08:12:24.123Z,100638.53
2022-09-18T08:17:46.341Z,100644.16
2022-09-18T08:23:09.271Z,100648.47
2022-09-18T08:28:14.018Z,100649.16
2022-09-18T08:33:25.251Z,100645.56
2022-09-18T08:38:28.065Z,100639.69
2022-09-18T08:44:18.162Z,100640.91
2022-09-18T08:49:26.297Z,100640.28
2022-09-18T08:54:46.164Z,100622.31
2022-09-18T09:00:04.089Z,100619.31
2022-09-18T09:05:10.645Z,100629.34
2022-09-18T09:10:26.321Z,100625.00
2022-09-18T09:15:50.433Z,100631.88
2022-09-18T09:20:53.698Z,100640.75
2022-09-18T09:26:03.491Z,100625.22
2022-09-18T09:31:27.648Z,100628.44
2022-09-18T09:36:57.582Z,100635.22
2022-09-18T09:42:07.659Z,100639.19
2022-09-18T09:47:45.794Z,100631.41
2022-09-18T09:52:47.742Z,100631.81
2022-09-18T09:58:06.339Z,100635.91
2022-09-18T10:03:17.941Z,100634.25
2022-09-18T10:08:42.220Z,100633.59
2022-09-18T10:13:58.498Z,100626.84
2022-09-18T10:19:01.509Z,100612.03
2022-09-18T10:24:15.729Z,100628.22
2022-09-18T10:29:18.691Z,100628.13
2022-09-18T10:34:45.979Z,100634.19
2022-09-18T10:39:53.160Z,100622.72
2022-09-18T10:45:01.703Z,100615.56
2022-09-18T10:50:06.934Z,100613.09
2022-09-18T10:55:21.620Z,100612.78
2022-09-18T11:00:38.810Z,100619.75
2022-09-18T11:05:55.459Z,100614.47
2022-09-18T11:11:05.294Z,100624.47
2022-09-18T11:16:21.592Z,100657.13
2022-09-18T11:21:23.621Z,100642.63
2022-09-18T11:26:30.408Z,100629.91
2022-09-18T11:31:48.179Z,100623.91
2022-09-18T11:37:07.446Z,100631.66
2022-09-18T11:42:14.606Z,100628.78
2022-09-18T11:47:37.482Z,100600.00
2022-09-18T11:52:44.472Z,100607.53
2022-09-18T11:57:53.366Z,100586.97
2022-09-18T12:03:22.911Z,100581.88
2022-09-18T12:08:32.493Z,100578.72
2022-09-18T12:13:59.470Z,100608.13
2022-09-18T12:19:03.301Z,100590.59
2022-09-18T12:24:11.696Z,100566.75
2022-09-18T12:29:32.258Z,100548.81
2022-09-18T12:35:32.833Z,100536.81
2022-09-18T12:41:00.707Z,100536.63
2022-09-18T12:46:24.564Z,100554.34
2022-09-18T12:51:38.736Z,100547.59
2022-09-18T12:56:50.242Z,100547.91
2022-09-18T13:01:57.893Z,100566.13
2022-09-18T13:07:11.580Z,100539.75
2022-09-18T13:12:25.875Z,100528.41
2022-09-18T13:17:44.165Z,100519.38
2022-09-18T13:22:53.193Z,100501.06
2022-09-18T13:27:57.337Z,100492.22
2022-09-18T13:33:00.620Z,100487.00
2022-09-18T13:38:06.372Z,100461.25
2022-09-18T13:43:37.634Z,100466.78
2022-09-18T13:48:45.482Z,100458.53
2022-09-18T13:53:47.049Z,100483.03
2022-09-18T13:58:54.423Z,100465.66
2022-09-18T14:03:56.021Z,100461.19
2022-09-18T14:08:57.594Z,100457.97
2022-09-18T14:13:59.367Z,100453.63
2022-09-18T14:19:04.801Z,100457.53
2022-09-18T14:24:23.372Z,100435.69
2022-09-18T14:29:29.224Z,100453.53
2022-09-18T14:34:33.482Z,100438.53
2022-09-18T14:39:36.526Z,100424.72
2022-09-18T14:44:38.461Z,100404.47
2022-09-18T14:49:39.944Z,100410.91
2022-09-18T14:54:47.690Z,100383.44
2022-09-18T14:59:52.972Z,100362.16
2022-09-18T15:04:54.883Z,100352.94
2022-09-18T15:09:59.925Z,100333.81
2022-09-18T15:15:39.378Z,100322.13
2022-09-18T15:20:47.568Z,100325.66
2022-09-18T15:25:52.487Z,100304.69
2022-09-18T15:30:59.257Z,100297.25
2022-09-18T15:36:02.857Z,100290.84
2022-09-18T15:41:22.106Z,100270.44
2022-09-18T15:46:25.105Z,100258.06
2022-09-18T15:51:33.144Z,100249.22
2022-09-18T15:56:36.205Z,100234.31
2022-09-18T16:01:40.439Z,100238.44
2022-09-18T16:07:03.668Z,100237.63
2022-09-18T16:12:25.869Z,100231.53
2022-09-18T16:17:32.798Z,100233.19
2022-09-18T16:22:40.618Z,100220.50
2022-09-18T16:27:46.896Z,100207.75
2022-09-18T16:32:48.712Z,100207.66
2022-09-18T16:37:50.980Z,100192.41
2022-09-18T16:42:58.410Z,100192.59
2022-09-18T16:48:00.935Z,100188.13
2022-09-18T16:53:02.611Z,100183.31
2022-09-18T16:58:05.985Z,100186.78
2022-09-18T17:03:07.921Z,100185.06
2022-09-18T17:08:09.716Z,100186.41
2022-09-18T17:13:11.436Z,100189.94
2022-09-18T17:18:12.985Z,100181.84
2022-09-18T17:23:14.538Z,100183.19
2022-09-18T17:28:18.343Z,100185.13
2022-09-18T17:33:20.540Z,100182.88
2022-09-18T17:38:22.165Z,100179.78
2022-09-18T17:43:25.059Z,100186.41
2022-09-18T17:48:28.825Z,100189.66
2022-09-18T17:53:32.371Z,100191.75
2022-09-18T17:58:34.100Z,100195.03
2022-09-18T18:03:35.830Z,100195.28
2022-09-18T18:08:38.024Z,100189.69
2022-09-18T18:13:41.684Z,100188.00
2022-09-18T18:18:43.338Z,100213.00
2022-09-18T18:23:45.356Z,100218.19
2022-09-18T18:28:46.925Z,100215.13
2022-09-18T18:33:48.518Z,100212.03
2022-09-18T18:38:52.947Z,100219.38
2022-09-18T18:43:58.369Z,100222.91
2022-09-18T18:49:04.015Z,100231.63
2022-09-18T18:54:06.437Z,100243.41
2022-09-18T18:59:11.536Z,100230.13
2022-09-18T19:04:15.340Z,100238.63
2022-09-18T19:09:22.391Z,100235.88
2022-09-18T19:14:30.268Z,100224.06
2022-09-18T19:19:31.860Z,100219.56
2022-09-18T19:24:33.429Z,100226.75
2022-09-18T19:29:39.046Z,100240.75
2022-09-18T19:34:40.551Z,100241.22
2022-09-18T19:39:42.088Z,100256.88
2022-09-18T19:44:48.205Z,100255.63
2022-09-18T19:49:50.948Z,100244.03
2022-09-18T19:54:54.392Z,100238.41
2022-09-18T19:59:57.209Z,100247.66
2022-09-18T20:04:58.760Z,100240.00
2022-09-18T20:10:00.309Z,100253.16
2022-09-18T20:15:03.142Z,100238.69
2022-09-18T20:20:08.851Z,100233.00
2022-09-18T20:25:10.933Z,100225.84
2022-09-18T20:30:12.629Z,100226.31
2022-09-18T20:35:14.480Z,100233.44
2022-09-18T20:40:16.161Z,100230.34
2022-09-18T20:45:18.130Z,100237.03
2022-09-18T20:50:23.659Z,100243.69
2022-09-18T20:55:25.369Z,100248.69
2022-09-18T21:00:26.995Z,100251.19
2022-09-18T21:05:28.624Z,100253.22
2022-09-18T21:10:31.683Z,100266.22
2022-09-18T21:15:34.868Z,100281.78
2022-09-18T21:20:36.411Z,100294.19
2022-09-18T21:25:38.081Z,100297.88
2022-09-18T21:30:39.625Z,100300.97
2022-09-18T21:35:50.356Z,100311.00
2022-09-18T21:40:51.903Z,100322.09
2022-09-18T21:45:53.459Z,100330.69
2022-09-18T21:50:55.168Z,100334.88
2022-09-18T21:56:01.633Z,100340.97
2022-09-18T22:01:41.720Z,100341.78
2022-09-18T22:06:44.277Z,100354.69
2022-09-18T22:11:46.993Z,100370.59
2022-09-18T22:16:49.242Z,100373.56
2022-09-18T22:21:51.915Z,100383.16
2022-09-18T22:27:08.403Z,100376.19
2022-09-18T22:32:10.788Z,100399.50
2022-09-18T22:37:12.413Z,100401.91
2022-09-18T22:42:15.121Z,100472.28
2022-09-18T22:47:16.656Z,100386.66
2022-09-18T22:52:18.195Z,100355.09
2022-09-18T22:57:19.728Z,100354.59
2022-09-18T23:02:23.251Z,100384.63
2022-09-18T23:07:25.635Z,100398.69
2022-09-18T23:12:27.172Z,100403.94
2022-09-18T23:17:31.261Z,100411.50
2022-09-18T23:22:32.806Z,100410.66
2022-09-18T23:27:34.327Z,100421.16
2022-09-18T23:32:35.906Z,100422.00
2022-09-18T23:37:37.444Z,100437.09
2022-09-18T23:42:39.128Z,100429.53
2022-09-18T23:47:40.700Z,100429.72
2022-09-18T23:52:43.420Z,100430.38
2022-09-18T23:57:44.961Z,100445.47
